sensor_id;sensor_type;location;lat;lon;timestamp;pressure;altitude;pressure_sealevel;temperature;humidity
68264;BME280;62068;55.320;10.780;2022-09-09T10:02:20;100796.49;;;21.31;39.35
68264;BME280;62068;55.320;10.780;2022-09-09T10:04:41;100800.64;;;21.56;38.68
68264;BME280;62068;55.320;10.780;2022-09-09T10:07:11;100799.46;;;21.38;38.81
68264;BME280;62068;55.320;10.780;2022-09-09T10:09:31;100801.79;;;21.93;38.63
68264;BME280;62068;55.320;10.780;2022-09-09T10:12:02;100801.46;;;21.74;38.26
68264;BME280;62068;55.320;10.780;2022-09-09T10:14:27;100803.28;;;22.09;38.76
68264;BME280;62068;55.320;10.780;2022-09-09T10:16:59;100803.16;;;21.75;39.17
68264;BME280;62068;55.320;10.780;2022-09-09T10:19:15;100802.76;;;21.55;39.42
68264;BME280;62068;55.320;10.780;2022-09-09T10:21:50;100804.30;;;21.23;39.21
68264;BME280;63398;55.312;10.792;2022-09-09T10:24:17;100807.03;;;22.61;39.20
68264;BME280;63398;55.312;10.792;2022-09-09T10:26:35;100807.87;;;21.04;40.51
68264;BME280;63398;55.312;10.792;2022-09-09T10:31:36;100809.40;;;22.54;40.44
68264;BME280;63398;55.312;10.792;2022-09-09T10:34:03;100812.24;;;22.32;41.14
68264;BME280;63398;55.312;10.792;2022-09-09T10:36:23;100812.89;;;21.99;42.09
68264;BME280;63398;55.312;10.792;2022-09-09T10:38:47;100816.30;;;21.57;42.36
68264;BME280;63398;55.312;10.792;2022-09-09T10:41:18;100819.54;;;21.97;42.24
68264;BME280;63398;55.312;10.792;2022-09-09T10:46:08;100825.39;;;21.35;43.52
68264;BME280;63398;55.312;10.792;2022-09-09T10:48:33;100827.70;;;21.28;43.54
68264;BME280;63398;55.312;10.792;2022-09-09T10:50:56;100827.18;;;20.84;44.29
68264;BME280;63398;55.312;10.792;2022-09-09T10:53:24;100824.43;;;20.84;44.24
68264;BME280;63398;55.312;10.792;2022-09-09T10:55:43;100825.79;;;21.02;44.03
68264;BME280;63398;55.312;10.792;2022-09-09T10:58:12;100823.60;;;20.84;44.27
68264;BME280;63398;55.312;10.792;2022-09-09T11:00:39;100828.27;;;21.24;43.75
68264;BME280;63398;55.312;10.792;2022-09-09T11:03:00;100828.59;;;21.36;43.55
68264;BME280;63398;55.312;10.792;2022-09-09T11:05:28;100831.30;;;21.21;43.77
68264;BME280;63398;55.312;10.792;2022-09-09T11:07:51;100832.15;;;20.85;44.30
68264;BME280;63398;55.312;10.792;2022-09-09T11:10:20;100835.83;;;21.89;42.70
68264;BME280;63398;55.312;10.792;2022-09-09T11:12:39;100840.18;;;21.67;43.35
68264;BME280;63398;55.312;10.792;2022-09-09T11:15:07;100845.10;;;21.86;42.75
68264;BME280;63398;55.312;10.792;2022-09-09T11:17:34;100844.63;;;21.95;42.90
68264;BME280;63398;55.312;10.792;2022-09-09T11:19:54;100845.89;;;22.30;42.26
68264;BME280;63398;55.312;10.792;2022-09-09T11:22:26;100850.81;;;21.85;42.59
68264;BME280;63398;55.312;10.792;2022-09-09T11:24:47;100855.59;;;21.91;42.38
68264;BME280;63398;55.312;10.792;2022-09-09T11:27:11;100850.22;;;21.62;43.11
68264;BME280;63398;55.312;10.792;2022-09-09T11:29:48;100845.80;;;21.62;42.82
68264;BME280;63398;55.312;10.792;2022-09-09T11:32:08;100844.50;;;21.83;42.79
68264;BME280;63398;55.312;10.792;2022-09-09T11:34:35;100844.41;;;21.48;43.27
68264;BME280;63398;55.312;10.792;2022-09-09T11:37:00;100848.80;;;21.79;42.45
68264;BME280;63398;55.312;10.792;2022-09-09T11:41:40;100855.77;;;22.09;42.37
68264;BME280;63398;55.312;10.792;2022-09-09T11:44:10;100861.01;;;21.45;42.82
68264;BME280;63398;55.312;10.792;2022-09-09T11:46:36;100864.54;;;22.12;42.29
68264;BME280;63398;55.312;10.792;2022-09-09T11:48:59;100864.38;;;21.87;42.26
68264;BME280;63398;55.312;10.792;2022-09-09T11:51:27;100863.50;;;21.50;42.76
68264;BME280;63398;55.312;10.792;2022-09-09T11:53:50;100864.38;;;21.64;42.59
68264;BME280;63398;55.312;10.792;2022-09-09T11:56:12;100864.39;;;22.34;41.58
68264;BME280;63398;55.312;10.792;2022-09-09T11:58:40;100863.71;;;22.49;41.24
68264;BME280;63398;55.312;10.792;2022-09-09T12:01:01;100867.79;;;21.90;41.93
68264;BME280;63398;55.312;10.792;2022-09-09T12:03:35;100868.29;;;22.04;42.05
68264;BME280;63398;55.312;10.792;2022-09-09T12:05:51;100865.56;;;22.34;41.64
68264;BME280;63398;55.312;10.792;2022-09-09T12:08:23;100866.77;;;22.02;41.78
68264;BME280;63398;55.312;10.792;2022-09-09T12:10:52;100868.09;;;22.04;41.75
68264;BME280;63398;55.312;10.792;2022-09-09T12:15:32;100867.29;;;22.36;41.62
68264;BME280;63398;55.312;10.792;2022-09-09T12:17:58;100866.02;;;22.22;41.52
68264;BME280;63398;55.312;10.792;2022-09-09T12:20:26;100863.67;;;22.43;41.54
68264;BME280;63398;55.312;10.792;2022-09-09T12:22:58;100861.33;;;22.55;41.33
68264;BME280;63398;55.312;10.792;2022-09-09T12:25:21;100859.49;;;22.49;41.15
68264;BME280;63398;55.312;10.792;2022-09-09T12:27:45;100860.60;;;22.31;41.35
68264;BME280;63398;55.312;10.792;2022-09-09T12:30:07;100860.28;;;22.31;41.29
68264;BME280;63398;55.312;10.792;2022-09-09T12:32:27;100864.19;;;22.43;41.15
68264;BME280;63398;55.312;10.792;2022-09-09T12:34:54;100871.85;;;22.46;41.04
68264;BME280;63398;55.312;10.792;2022-09-09T12:37:25;100872.52;;;22.37;41.15
68264;BME280;63398;55.312;10.792;2022-09-09T12:39:45;100874.16;;;22.65;41.08
68264;BME280;63398;55.312;10.792;2022-09-09T12:42:16;100873.84;;;22.41;41.07
68264;BME280;63398;55.312;10.792;2022-09-09T12:44:33;100876.98;;;22.41;41.10
68264;BME280;63398;55.312;10.792;2022-09-09T12:47:01;100877.27;;;22.50;41.07
68264;BME280;63398;55.312;10.792;2022-09-09T12:49:28;100882.06;;;22.34;41.25
68264;BME280;63398;55.312;10.792;2022-09-09T12:51:49;100884.89;;;22.16;41.63
68264;BME280;63398;55.312;10.792;2022-09-09T12:54:14;100879.90;;;22.23;41.42
68264;BME280;63398;55.312;10.792;2022-09-09T12:56:40;100881.82;;;22.52;41.22
68264;BME280;63398;55.312;10.792;2022-09-09T12:59:04;100884.34;;;21.99;41.72
68264;BME280;63398;55.312;10.792;2022-09-09T13:01:30;100881.07;;;21.29;43.68
68264;BME280;63398;55.312;10.792;2022-09-09T13:03:55;100886.07;;;21.40;43.57
68264;BME280;63398;55.312;10.792;2022-09-09T13:06:22;100886.17;;;20.68;44.76
68264;BME280;63398;55.312;10.792;2022-09-09T13:08:45;100883.06;;;20.39;45.92
68264;BME280;63398;55.312;10.792;2022-09-09T13:11:14;100877.75;;;20.63;45.24
68264;BME280;63398;55.312;10.792;2022-09-09T13:13:37;100878.32;;;20.85;45.08
68264;BME280;63398;55.312;10.792;2022-09-09T13:16:02;100874.54;;;20.76;45.40
68264;BME280;63398;55.312;10.792;2022-09-09T13:18:28;100877.81;;;20.42;46.89
68264;BME280;63398;55.312;10.792;2022-09-09T13:20:52;100876.09;;;20.10;47.36
68264;BME280;63398;55.312;10.792;2022-09-09T13:23:18;100880.09;;;20.59;46.69
68264;BME280;63398;55.312;10.792;2022-09-09T13:25:54;100875.47;;;21.06;45.58
68264;BME280;63398;55.312;10.792;2022-09-09T13:28:18;100874.26;;;21.82;43.68
68264;BME280;63398;55.312;10.792;2022-09-09T13:30:38;100876.98;;;22.27;42.55
68264;BME280;63398;55.312;10.792;2022-09-09T13:33:04;100876.20;;;22.44;41.78
68264;BME280;63398;55.312;10.792;2022-09-09T13:35:24;100872.49;;;22.81;41.23
68264;BME280;63398;55.312;10.792;2022-09-09T13:37:48;100868.08;;;23.26;40.45
68264;BME280;63398;55.312;10.792;2022-09-09T13:40:18;100868.08;;;22.83;41.04
68264;BME280;63398;55.312;10.792;2022-09-09T13:42:41;100864.22;;;23.03;40.66
68264;BME280;63398;55.312;10.792;2022-09-09T13:45:04;100864.58;;;22.87;40.48
68264;BME280;63398;55.312;10.792;2022-09-09T13:47:31;100869.63;;;22.85;40.83
68264;BME280;63398;55.312;10.792;2022-09-09T13:49:54;100869.19;;;23.03;40.48
68264;BME280;63398;55.312;10.792;2022-09-09T13:52:19;100869.51;;;23.32;40.19
68264;BME280;63398;55.312;10.792;2022-09-09T13:54:47;100874.29;;;23.03;40.37
68264;BME280;63398;55.312;10.792;2022-09-09T13:57:14;100873.95;;;22.79;40.72
68264;BME280;63398;55.312;10.792;2022-09-09T13:59:34;100875.81;;;22.42;40.84
68264;BME280;63398;55.312;10.792;2022-09-09T14:01:59;100878.66;;;22.38;41.35
68264;BME280;63398;55.312;10.792;2022-09-09T14:04:24;100878.67;;;22.34;41.40
68264;BME280;63398;55.312;10.792;2022-09-09T14:06:50;100877.57;;;22.34;41.58
68264;BME280;63398;55.312;10.792;2022-09-09T14:09:16;100876.55;;;22.36;41.66
68264;BME280;63398;55.312;10.792;2022-09-09T14:11:39;100879.78;;;22.90;41.00
68264;BME280;63398;55.312;10.792;2022-09-09T14:14:04;100877.33;;;22.90;40.92
68264;BME280;63398;55.312;10.792;2022-09-09T14:16:29;100873.33;;;23.62;39.99
68264;BME280;63398;55.312;10.792;2022-09-09T14:19:00;100873.61;;;22.87;40.50
68264;BME280;63398;55.312;10.792;2022-09-09T14:21:20;100873.56;;;22.88;40.37
68264;BME280;63398;55.312;10.792;2022-09-09T14:23:45;100877.68;;;22.49;40.50
68264;BME280;63398;55.312;10.792;2022-09-09T14:26:10;100874.03;;;22.98;40.13
68264;BME280;63398;55.312;10.792;2022-09-09T14:28:36;100873.66;;;22.99;40.06
68264;BME280;63398;55.312;10.792;2022-09-09T14:31:01;100873.00;;;22.84;40.61
68264;BME280;63398;55.312;10.792;2022-09-09T14:33:25;100870.38;;;23.06;40.58
68264;BME280;63398;55.312;10.792;2022-09-09T14:35:56;100869.98;;;23.26;39.96
68264;BME280;63398;55.312;10.792;2022-09-09T14:38:15;100864.60;;;23.57;39.47
68264;BME280;63398;55.312;10.792;2022-09-09T14:40:40;100868.66;;;22.72;41.11
68264;BME280;63398;55.312;10.792;2022-09-09T14:43:05;100869.81;;;22.45;41.16
68264;BME280;63398;55.312;10.792;2022-09-09T14:45:30;100873.92;;;22.52;41.40
68264;BME280;63398;55.312;10.792;2022-09-09T14:47:55;100872.53;;;22.58;41.21
68264;BME280;63398;55.312;10.792;2022-09-09T14:50:22;100872.33;;;22.60;41.25
68264;BME280;63398;55.312;10.792;2022-09-09T14:52:46;100869.87;;;22.23;41.34
68264;BME280;63398;55.312;10.792;2022-09-09T14:55:11;100867.39;;;22.37;41.58
68264;BME280;63398;55.312;10.792;2022-09-09T14:57:36;100866.32;;;22.35;41.39
68264;BME280;63398;55.312;10.792;2022-09-09T15:00:02;100864.28;;;22.25;41.58
68264;BME280;63398;55.312;10.792;2022-09-09T15:02:26;100862.82;;;22.24;41.64
68264;BME280;63398;55.312;10.792;2022-09-09T15:04:52;100859.74;;;22.88;40.10
68264;BME280;63398;55.312;10.792;2022-09-09T15:07:17;100857.40;;;23.53;39.08
68264;BME280;63398;55.312;10.792;2022-09-09T15:09:42;100853.91;;;24.15;38.20
68264;BME280;63398;55.312;10.792;2022-09-09T15:12:07;100851.27;;;23.96;38.25
68264;BME280;63398;55.312;10.792;2022-09-09T15:14:32;100850.33;;;25.55;35.77
68264;BME280;63398;55.312;10.792;2022-09-09T15:16:58;100850.12;;;26.81;33.57
68264;BME280;63398;55.312;10.792;2022-09-09T15:19:24;100852.39;;;26.66;33.68
68264;BME280;63398;55.312;10.792;2022-09-09T15:21:49;100860.99;;;25.66;34.90
68264;BME280;63398;55.312;10.792;2022-09-09T15:24:15;100865.19;;;25.91;34.55
68264;BME280;63398;55.312;10.792;2022-09-09T15:26:41;100864.10;;;24.77;35.96
68264;BME280;63398;55.312;10.792;2022-09-09T15:29:07;100864.89;;;24.10;37.51
68264;BME280;63398;55.312;10.792;2022-09-09T15:31:33;100858.21;;;23.66;38.85
68264;BME280;63398;55.312;10.792;2022-09-09T15:33:59;100857.60;;;23.15;39.61
68264;BME280;63398;55.312;10.792;2022-09-09T15:36:24;100855.75;;;23.07;40.09
68264;BME280;63398;55.312;10.792;2022-09-09T15:38:48;100856.39;;;23.43;39.84
68264;BME280;63398;55.312;10.792;2022-09-09T15:41:14;100860.45;;;22.66;40.30
68264;BME280;63398;55.312;10.792;2022-09-09T15:43:38;100865.78;;;23.07;40.47
68264;BME280;63398;55.312;10.792;2022-09-09T15:48:31;100866.07;;;22.75;40.51
68264;BME280;63398;55.312;10.792;2022-09-09T15:51:01;100865.09;;;22.88;40.55
68264;BME280;63398;55.312;10.792;2022-09-09T15:53:20;100861.81;;;22.90;40.61
68264;BME280;63398;55.312;10.792;2022-09-09T15:55:43;100864.36;;;22.71;41.24
68264;BME280;63398;55.312;10.792;2022-09-09T15:58:08;100865.51;;;22.74;40.97
68264;BME280;63398;55.312;10.792;2022-09-09T16:00:33;100868.40;;;22.84;40.72
68264;BME280;63398;55.312;10.792;2022-09-09T16:02:59;100870.07;;;22.80;40.68
68264;BME280;63398;55.312;10.792;2022-09-09T16:05:24;100870.59;;;22.98;40.48
68264;BME280;63398;55.312;10.792;2022-09-09T16:07:48;100870.37;;;22.88;40.61
68264;BME280;63398;55.312;10.792;2022-09-09T16:10:14;100869.26;;;22.90;40.59
68264;BME280;63398;55.312;10.792;2022-09-09T16:12:39;100868.52;;;22.71;40.46
68264;BME280;63398;55.312;10.792;2022-09-09T16:15:04;100874.47;;;22.91;40.23
68264;BME280;63398;55.312;10.792;2022-09-09T16:17:29;100876.64;;;23.00;40.32
68264;BME280;63398;55.312;10.792;2022-09-09T16:19:54;100875.69;;;23.01;40.38
68264;BME280;63398;55.312;10.792;2022-09-09T16:22:19;100873.59;;;22.92;40.45
68264;BME280;63398;55.312;10.792;2022-09-09T16:24:44;100872.25;;;22.65;40.49
68264;BME280;63398;55.312;10.792;2022-09-09T16:27:09;100873.80;;;22.48;40.39
68264;BME280;63398;55.312;10.792;2022-09-09T16:29:34;100879.56;;;22.78;40.26
68264;BME280;63398;55.312;10.792;2022-09-09T16:31:59;100880.82;;;22.91;40.44
68264;BME280;63398;55.312;10.792;2022-09-09T16:34:25;100877.72;;;22.97;40.29
68264;BME280;63398;55.312;10.792;2022-09-09T16:36:50;100884.86;;;22.87;40.10
68264;BME280;63398;55.312;10.792;2022-09-09T16:39:17;100882.98;;;22.47;40.43
68264;BME280;63398;55.312;10.792;2022-09-09T16:41:42;100889.44;;;22.92;40.85
68264;BME280;63398;55.312;10.792;2022-09-09T16:44:07;100886.31;;;22.50;40.69
68264;BME280;63398;55.312;10.792;2022-09-09T16:46:32;100893.83;;;22.67;40.67
68264;BME280;63398;55.312;10.792;2022-09-09T16:48:56;100894.69;;;22.54;40.86
68264;BME280;63398;55.312;10.792;2022-09-09T16:51:22;100893.68;;;22.64;40.71
68264;BME280;63398;55.312;10.792;2022-09-09T16:53:46;100892.52;;;22.98;40.54
68264;BME280;63398;55.312;10.792;2022-09-09T16:56:12;100891.09;;;22.81;40.48
68264;BME280;63398;55.312;10.792;2022-09-09T16:58:36;100891.48;;;23.05;40.47
68264;BME280;63398;55.312;10.792;2022-09-09T17:01:02;100894.54;;;22.83;40.78
68264;BME280;63398;55.312;10.792;2022-09-09T17:03:26;100895.16;;;22.73;40.62
68264;BME280;63398;55.312;10.792;2022-09-09T17:05:51;100890.74;;;22.36;40.52
68264;BME280;63398;55.312;10.792;2022-09-09T17:08:16;100898.37;;;22.78;40.55
68264;BME280;63398;55.312;10.792;2022-09-09T17:10:41;100898.75;;;22.78;40.55
68264;BME280;63398;55.312;10.792;2022-09-09T17:13:06;100905.77;;;22.79;40.55
68264;BME280;63398;55.312;10.792;2022-09-09T17:15:31;100904.00;;;22.77;40.59
68264;BME280;63398;55.312;10.792;2022-09-09T17:17:56;100897.41;;;22.84;40.50
68264;BME280;63398;55.312;10.792;2022-09-09T17:20:22;100897.26;;;23.03;40.52
68264;BME280;63398;55.312;10.792;2022-09-09T17:22:47;100896.79;;;22.48;40.64
68264;BME280;63398;55.312;10.792;2022-09-09T17:25:12;100898.80;;;22.69;40.66
68264;BME280;63398;55.312;10.792;2022-09-09T17:27:37;100900.63;;;22.74;40.59
68264;BME280;63398;55.312;10.792;2022-09-09T17:30:03;100903.67;;;22.52;40.55
68264;BME280;63398;55.312;10.792;2022-09-09T17:32:27;100904.91;;;22.95;40.34
68264;BME280;63398;55.312;10.792;2022-09-09T17:34:52;100910.46;;;22.86;40.40
68264;BME280;63398;55.312;10.792;2022-09-09T17:37:17;100917.37;;;22.84;40.46
68264;BME280;63398;55.312;10.792;2022-09-09T17:39:43;100920.02;;;22.78;40.54
68264;BME280;63398;55.312;10.792;2022-09-09T17:42:08;100922.38;;;22.93;40.33
68264;BME280;63398;55.312;10.792;2022-09-09T17:44:33;100919.01;;;22.91;40.37
68264;BME280;63398;55.312;10.792;2022-09-09T17:46:58;100921.17;;;22.53;40.19
68264;BME280;63398;55.312;10.792;2022-09-09T17:49:23;100921.92;;;22.85;40.05
68264;BME280;63398;55.312;10.792;2022-09-09T17:51:48;100921.39;;;22.48;40.48
68264;BME280;63398;55.312;10.792;2022-09-09T17:54:15;100924.22;;;22.77;40.52
68264;BME280;63398;55.312;10.792;2022-09-09T17:56:40;100927.53;;;22.65;40.15
68264;BME280;63398;55.312;10.792;2022-09-09T17:59:06;100930.89;;;22.60;40.38
68264;BME280;63398;55.312;10.792;2022-09-09T18:01:32;100934.28;;;22.73;40.72
68264;BME280;63398;55.312;10.792;2022-09-09T18:03:55;100937.51;;;22.01;41.74
68264;BME280;63398;55.312;10.792;2022-09-09T18:06:22;100940.48;;;21.93;42.36
68264;BME280;63398;55.312;10.792;2022-09-09T18:08:48;100941.33;;;21.95;42.34
68264;BME280;63398;55.312;10.792;2022-09-09T18:11:10;100941.70;;;21.73;42.59
68264;BME280;63398;55.312;10.792;2022-09-09T18:13:35;100944.49;;;21.93;42.40
68264;BME280;63398;55.312;10.792;2022-09-09T18:16:01;100941.86;;;21.97;42.67
68264;BME280;63398;55.312;10.792;2022-09-09T18:18:26;100942.26;;;21.86;42.49
68264;BME280;63398;55.312;10.792;2022-09-09T18:20:56;100939.36;;;21.81;42.23
68264;BME280;63398;55.312;10.792;2022-09-09T18:23:16;100942.28;;;21.84;42.12
68264;BME280;63398;55.312;10.792;2022-09-09T18:25:41;100942.48;;;21.93;42.72
68264;BME280;63398;55.312;10.792;2022-09-09T18:28:06;100941.71;;;22.17;42.36
68264;BME280;63398;55.312;10.792;2022-09-09T18:30:31;100942.87;;;21.73;42.66
68264;BME280;63398;55.312;10.792;2022-09-09T18:32:56;100937.93;;;21.60;42.50
68264;BME280;63398;55.312;10.792;2022-09-09T18:35:21;100936.58;;;21.57;42.90
68264;BME280;63398;55.312;10.792;2022-09-09T18:37:46;100940.16;;;21.88;42.49
68264;BME280;63398;55.312;10.792;2022-09-09T18:40:11;100942.96;;;22.12;42.45
68264;BME280;63398;55.312;10.792;2022-09-09T18:42:36;100944.75;;;22.27;41.83
68264;BME280;63398;55.312;10.792;2022-09-09T18:45:02;100946.16;;;21.73;42.32
68264;BME280;63398;55.312;10.792;2022-09-09T18:47:27;100948.03;;;21.91;42.42
68264;BME280;63398;55.312;10.792;2022-09-09T18:49:52;100953.43;;;22.19;42.34
68264;BME280;63398;55.312;10.792;2022-09-09T18:52:17;100955.26;;;21.77;42.27
68264;BME280;63398;55.312;10.792;2022-09-09T18:54:44;100954.91;;;21.81;42.19
68264;BME280;63398;55.312;10.792;2022-09-09T18:57:08;100954.06;;;22.38;41.70
68264;BME280;63398;55.312;10.792;2022-09-09T18:59:33;100955.65;;;22.31;42.11
68264;BME280;63398;55.312;10.792;2022-09-09T19:01:58;100954.37;;;22.18;41.92
68264;BME280;63398;55.312;10.792;2022-09-09T19:04:24;100951.88;;;21.74;42.22
68264;BME280;63398;55.312;10.792;2022-09-09T19:06:49;100953.48;;;22.11;42.45
68264;BME280;63398;55.312;10.792;2022-09-09T19:09:15;100950.14;;;21.91;42.33
68264;BME280;63398;55.312;10.792;2022-09-09T19:11:39;100945.23;;;22.01;42.19
68264;BME280;63398;55.312;10.792;2022-09-09T19:14:05;100942.99;;;22.18;41.64
68264;BME280;63398;55.312;10.792;2022-09-09T19:16:31;100944.49;;;22.21;41.86
68264;BME280;63398;55.312;10.792;2022-09-09T19:18:55;100949.75;;;22.17;41.94
68264;BME280;63398;55.312;10.792;2022-09-09T19:21:22;100954.41;;;22.12;41.92
68264;BME280;63398;55.312;10.792;2022-09-09T19:23:45;100958.79;;;22.55;41.73
68264;BME280;63398;55.312;10.792;2022-09-09T19:26:10;100959.86;;;22.18;41.91
68264;BME280;63398;55.312;10.792;2022-09-09T19:28:35;100958.65;;;22.32;41.70
68264;BME280;63398;55.312;10.792;2022-09-09T19:31:02;100955.35;;;22.10;41.65
68264;BME280;63398;55.312;10.792;2022-09-09T19:33:26;100955.25;;;22.03;41.72
68264;BME280;63398;55.312;10.792;2022-09-09T19:35:56;100955.05;;;21.93;42.11
68264;BME280;63398;55.312;10.792;2022-09-09T19:38:15;100958.13;;;21.92;42.26
68264;BME280;63398;55.312;10.792;2022-09-09T19:40:40;100962.63;;;22.18;42.20
68264;BME280;63398;55.312;10.792;2022-09-09T19:43:06;100961.32;;;22.28;41.75
68264;BME280;63398;55.312;10.792;2022-09-09T19:45:31;100957.47;;;21.90;42.27
68264;BME280;63398;55.312;10.792;2022-09-09T19:47:56;100960.27;;;21.67;42.63
68264;BME280;63398;55.312;10.792;2022-09-09T19:50:21;100960.79;;;21.68;42.64
68264;BME280;63398;55.312;10.792;2022-09-09T19:52:46;100959.77;;;21.90;42.31
68264;BME280;63398;55.312;10.792;2022-09-09T19:55:11;100959.11;;;22.11;42.39
68264;BME280;63398;55.312;10.792;2022-09-09T19:57:36;100962.85;;;21.71;42.60
68264;BME280;63398;55.312;10.792;2022-09-09T20:00:02;100964.27;;;21.91;42.70
68264;BME280;63398;55.312;10.792;2022-09-09T20:02:27;100968.40;;;21.90;42.26
68264;BME280;63398;55.312;10.792;2022-09-09T20:04:52;100969.26;;;21.82;42.38
68264;BME280;63398;55.312;10.792;2022-09-09T20:07:17;100973.00;;;21.48;42.58
68264;BME280;63398;55.312;10.792;2022-09-09T20:09:42;100972.18;;;22.04;42.12
68264;BME280;63398;55.312;10.792;2022-09-09T20:12:07;100975.29;;;22.08;42.02
68264;BME280;63398;55.312;10.792;2022-09-09T20:14:32;100980.13;;;22.08;42.38
68264;BME280;63398;55.312;10.792;2022-09-09T20:16:57;100985.71;;;21.94;41.86
68264;BME280;63398;55.312;10.792;2022-09-09T20:19:22;100987.19;;;21.87;41.95
68264;BME280;63398;55.312;10.792;2022-09-09T20:21:47;100986.63;;;22.30;42.02
68264;BME280;63398;55.312;10.792;2022-09-09T20:24:14;100989.81;;;21.99;41.73
68264;BME280;63398;55.312;10.792;2022-09-09T20:26:38;100989.46;;;22.78;40.52
68264;BME280;63398;55.312;10.792;2022-09-09T20:29:04;100984.71;;;22.27;41.18
68264;BME280;63398;55.312;10.792;2022-09-09T20:31:29;100983.77;;;22.73;40.57
68264;BME280;63398;55.312;10.792;2022-09-09T20:33:54;100980.38;;;22.43;40.95
68264;BME280;63398;55.312;10.792;2022-09-09T20:36:20;100982.66;;;22.27;40.87
68264;BME280;63398;55.312;10.792;2022-09-09T20:38:45;100977.38;;;22.44;40.99
68264;BME280;63398;55.312;10.792;2022-09-09T20:41:08;100975.02;;;22.71;40.54
68264;BME280;63398;55.312;10.792;2022-09-09T20:43:34;100976.99;;;22.57;40.73
68264;BME280;63398;55.312;10.792;2022-09-09T20:46:01;100979.75;;;22.37;40.69
68264;BME280;63398;55.312;10.792;2022-09-09T20:48:24;100977.74;;;22.43;40.52
68264;BME280;63398;55.312;10.792;2022-09-09T20:50:49;100986.74;;;22.75;40.44
68264;BME280;63398;55.312;10.792;2022-09-09T20:53:15;100988.36;;;22.73;40.25
68264;BME280;63398;55.312;10.792;2022-09-09T20:55:39;100990.38;;;22.87;40.09
68264;BME280;63398;55.312;10.792;2022-09-09T20:58:04;100989.67;;;22.85;40.06
68264;BME280;63398;55.312;10.792;2022-09-09T21:00:30;100991.32;;;22.41;39.70
68264;BME280;63398;55.312;10.792;2022-09-09T21:02:55;100994.07;;;22.70;40.43
68264;BME280;63398;55.312;10.792;2022-09-09T21:05:21;100991.70;;;22.97;40.12
68264;BME280;63398;55.312;10.792;2022-09-09T21:07:46;100987.16;;;22.77;40.28
68264;BME280;63398;55.312;10.792;2022-09-09T21:10:11;100985.07;;;22.61;40.55
68264;BME280;63398;55.312;10.792;2022-09-09T21:12:37;100983.55;;;22.50;40.36
68264;BME280;63398;55.312;10.792;2022-09-09T21:15:03;100981.90;;;22.50;40.79
68264;BME280;63398;55.312;10.792;2022-09-09T21:17:28;100983.68;;;22.51;40.80
68264;BME280;63398;55.312;10.792;2022-09-09T21:19:53;100985.91;;;22.48;40.86
68264;BME280;63398;55.312;10.792;2022-09-09T21:22:19;100984.20;;;22.39;40.87
68264;BME280;63398;55.312;10.792;2022-09-09T21:24:45;100983.42;;;22.33;41.02
68264;BME280;63398;55.312;10.792;2022-09-09T21:27:10;100980.78;;;22.27;41.08
68264;BME280;63398;55.312;10.792;2022-09-09T21:29:35;100983.30;;;22.30;40.94
68264;BME280;63398;55.312;10.792;2022-09-09T21:32:01;100983.82;;;22.51;41.02
68264;BME280;63398;55.312;10.792;2022-09-09T21:34:26;100985.69;;;22.24;41.11
68264;BME280;63398;55.312;10.792;2022-09-09T21:36:51;100979.99;;;22.23;41.11
68264;BME280;63398;55.312;10.792;2022-09-09T21:39:17;100981.61;;;22.42;41.16
68264;BME280;63398;55.312;10.792;2022-09-09T21:41:42;100981.89;;;22.26;40.96
68264;BME280;63398;55.312;10.792;2022-09-09T21:44:07;100980.50;;;22.25;41.03
68264;BME280;63398;55.312;10.792;2022-09-09T21:46:32;100986.00;;;22.19;41.12
68264;BME280;63398;55.312;10.792;2022-09-09T21:48:57;100990.42;;;22.27;40.97
68264;BME280;63398;55.312;10.792;2022-09-09T21:51:23;100993.96;;;22.19;40.93
68264;BME280;63398;55.312;10.792;2022-09-09T21:53:47;100991.74;;;22.18;40.98
68264;BME280;63398;55.312;10.792;2022-09-09T21:56:14;100995.99;;;22.10;41.18
68264;BME280;63398;55.312;10.792;2022-09-09T21:58:38;100997.20;;;22.12;41.05
68264;BME280;63398;55.312;10.792;2022-09-09T22:01:08;100999.20;;;22.37;41.10
68264;BME280;63398;55.312;10.792;2022-09-09T22:03:28;100998.83;;;22.20;40.91
68264;BME280;63398;55.312;10.792;2022-09-09T22:05:53;101002.06;;;22.35;41.08
68264;BME280;63398;55.312;10.792;2022-09-09T22:08:19;101001.19;;;22.15;40.95
68264;BME280;63398;55.312;10.792;2022-09-09T22:10:45;101001.18;;;22.10;41.04
68264;BME280;63398;55.312;10.792;2022-09-09T22:13:09;100999.28;;;22.34;41.03
68264;BME280;63398;55.312;10.792;2022-09-09T22:15:34;101003.36;;;22.38;40.94
68264;BME280;63398;55.312;10.792;2022-09-09T22:18:00;101002.44;;;22.33;41.01
68264;BME280;63398;55.312;10.792;2022-09-09T22:20:24;100997.33;;;22.33;40.96
68264;BME280;63398;55.312;10.792;2022-09-09T22:22:50;100998.70;;;22.11;40.91
68264;BME280;63398;55.312;10.792;2022-09-09T22:25:15;100999.75;;;22.09;40.92
68264;BME280;63398;55.312;10.792;2022-09-09T22:27:40;101001.22;;;22.11;40.89
68264;BME280;63398;55.312;10.792;2022-09-09T22:30:06;101002.68;;;22.39;40.75
68264;BME280;63398;55.312;10.792;2022-09-09T22:32:30;100999.83;;;22.16;40.74
68264;BME280;63398;55.312;10.792;2022-09-09T22:34:55;100999.41;;;22.10;40.82
68264;BME280;63398;55.312;10.792;2022-09-09T22:37:20;100994.74;;;22.29;40.89
68264;BME280;63398;55.312;10.792;2022-09-09T22:39:45;100993.83;;;22.26;40.90
68264;BME280;63398;55.312;10.792;2022-09-09T22:42:11;100991.91;;;22.00;40.93